aviador You're here:

HECA Decoded Metar

CAIRO in EGYPT
Report Time2017-08-22 00:00:00
UTC Time2017-08-21 23:56:34
Flight Rules vfr VFR
Wind030° at 08 kt
W.Decomp.*RWY 05: 7.3 kt HW 3.3 kt LCW
W.Rank030° ranks 4
Current wind is below 030° avg. (8.7)
Visibility9999 m
Phenomena:N/A
Clouds:N/A
Expected CloudBase > 2,000 ft AGL from Temp-Dew spread
CeilingNone
Temp28°C (ISA +13)
Dew Point23°C (74% RH)
Heat Index31.2°C
QNH1011 hPa
Density Alt2,231 ft
Elevation243 ft
Report Wrong Elevation
Raw Report
METAR HECA 220000Z 03008KT CAVOK 28/23 Q1011 NOSIG=

Extra information for HECA:More info

Metar Taf Metar & Taf Last 4 Metars F.Rules Stats Wind Profile Meteogram Temp Stats Airport Information Weather charts Add Link Nearby VenuesMetar ALERT Operation Metar Decoded Social comments